OPKC/KHI METAR and TAF weather

Enter ICAO airport designator
Station Type Date Time Source
OPKC METAR 2018/12/11 16:55 UTC NOAA

OPKC 111655Z 05008KT 5000 FU NSC 20/10 Q1016 NOSIG


Station Type Date Time Source
OPKC Decoded METAR 2018/12/11 16:55 UTC NOAA

Karachi Airport, Pakistan (OPKC) 24-54N 067-08E 22M
Dec 11, 2018 - 11:55 AM EST / 2018.12.11 1655 UTC
Wind: from the NE (050 degrees) at 9 MPH (8 KT):0
Visibility: 3 mile(s):0
Weather: smoke
Temperature: 68 F (20 C)
Dew Point: 50 F (10 C)
Relative Humidity: 52%
Pressure (altimeter): 30.00 in. Hg (1016 hPa)
ob: OPKC 111655Z 05008KT 5000 FU NSC 20/10 Q1016 NOSIG
cycle: 17

Station Type Date Time Source
OPKC TAF 2018/12/11 18:33 UTC NOAA

TAF OPKC 111600Z 1118/1224 36005G15KT 5000 FU NSC
TEMPO 1201/1205 03010KT 2000 FU NSC
FM120600 03010G20KT 6000 NSC


Example: see airport list